Time;durP1;ratioP1;P1;durP2;ratioP2;P2;SDS_P1;SDS_P2;PMS_P1;PMS_P2;Temp;Humidity;BMP_temperature;BMP_pressure;BME280_temperature;BME280_humidity;BME280_pressure;Samples;Min_cycle;Max_cycle;Signal;HPM_P1;HPM_P2
2023/07/22 00:00:06;;;;;;;2.67;1.88;;;;;;;30.70;46.97;98331.78;2079409;28;20060;-52
2023/07/22 00:01:06;;;;;;;2.85;2.60;;;;;;;30.73;46.86;98339.41;2070821;28;20044;-54
2023/07/22 00:02:08;;;;;;;3.92;2.38;;;;;;;30.70;47.07;98328.22;2080367;28;20132;-53
2023/07/22 00:03:09;;;;;;;4.53;2.22;;;;;;;30.69;46.90;98324.66;2087006;28;20045;-53
2023/07/22 00:04:10;;;;;;;2.67;1.77;;;;;;;30.69;47.09;98332.06;2086971;28;20494;-51
2023/07/22 00:05:12;;;;;;;3.30;2.20;;;;;;;30.68;47.23;98331.25;2081962;28;20567;-50
2023/07/22 00:06:13;;;;;;;1.80;1.70;;;;;;;30.70;47.28;98329.03;2077980;28;20419;-50
2023/07/22 00:07:15;;;;;;;2.10;1.95;;;;;;;30.70;47.27;98333.69;2078972;28;20136;-50
2023/07/22 00:08:16;;;;;;;2.90;1.77;;;;;;;30.70;47.39;98328.22;2079914;28;20065;-53
2023/07/22 00:09:18;;;;;;;1.92;1.73;;;;;;;30.70;47.42;98333.69;2074490;28;20490;-52
2023/07/22 00:10:18;;;;;;;3.47;2.33;;;;;;;30.68;46.88;98334.00;2076123;28;20051;-51
2023/07/22 00:11:20;;;;;;;4.35;2.10;;;;;;;30.71;47.23;98338.06;2079749;28;20499;-52
2023/07/22 00:12:25;;;;;;;3.03;1.92;;;;;;;30.68;47.35;98336.72;2080046;28;20131;-51
2023/07/22 00:13:26;;;;;;;3.10;2.25;;;;;;;30.67;47.24;98332.38;2082359;28;20049;-53
2023/07/22 00:14:28;;;;;;;4.55;2.20;;;;;;;30.66;47.37;98330.72;2077489;28;20048;-53
2023/07/22 00:15:29;;;;;;;1.95;1.80;;;;;;;30.65;47.49;98333.75;2087758;28;20060;-51
2023/07/22 00:16:31;;;;;;;3.42;2.10;;;;;;;30.68;47.40;98341.38;2086834;28;20395;-50
2023/07/22 00:17:32;;;;;;;3.70;2.15;;;;;;;30.67;47.15;98340.59;2081652;28;20384;-50
2023/07/22 00:18:34;;;;;;;2.38;1.75;;;;;;;30.66;47.24;98338.94;2078485;28;20071;-51
2023/07/22 00:19:35;;;;;;;2.53;1.98;;;;;;;30.68;47.07;98331.25;2086293;28;20489;-49
2023/07/22 00:20:38;;;;;;;2.35;1.60;;;;;;;30.67;47.13;98328.78;2089459;28;20044;-50
2023/07/22 00:21:39;;;;;;;3.22;2.00;;;;;;;30.66;47.14;98327.16;2090462;28;20076;-50
2023/07/22 00:22:41;;;;;;;2.22;1.83;;;;;;;30.65;47.27;98326.38;2088398;28;20273;-52
2023/07/22 00:23:42;;;;;;;1.90;1.63;;;;;;;30.66;47.06;98327.97;2088569;28;20187;-53
2023/07/22 00:24:43;;;;;;;2.25;1.58;;;;;;;30.65;47.46;98326.38;2088465;28;20071;-50
2023/07/22 00:25:44;;;;;;;2.80;2.22;;;;;;;30.66;46.97;98321.69;2088009;28;20534;-52
2023/07/22 00:26:46;;;;;;;2.20;1.83;;;;;;;30.66;47.10;98332.66;2079668;28;20049;-50
2023/07/22 00:27:47;;;;;;;3.42;1.90;;;;;;;30.65;47.28;98325.56;2078505;28;20042;-53
2023/07/22 00:28:49;;;;;;;2.40;1.88;;;;;;;30.67;47.29;98323.31;2076718;28;20049;-53
2023/07/22 00:29:50;;;;;;;1.88;1.55;;;;;;;30.64;47.47;98327.44;2081074;28;20060;-52
2023/07/22 00:30:53;;;;;;;2.65;2.20;;;;;;;30.65;47.04;98323.63;2078943;28;20407;-53
2023/07/22 00:31:54;;;;;;;2.10;1.77;;;;;;;30.67;47.17;98323.31;2088884;28;20418;-53
2023/07/22 00:32:55;;;;;;;2.65;1.60;;;;;;;30.66;47.20;98324.44;2086584;28;20135;-51
2023/07/22 00:33:56;;;;;;;2.30;2.08;;;;;;;30.63;47.27;98309.41;2085866;28;20546;-49
2023/07/22 00:34:57;;;;;;;2.13;1.67;;;;;;;30.64;47.08;98307.47;2088002;28;20414;-52
2023/07/22 00:35:59;;;;;;;2.58;2.05;;;;;;;30.64;47.20;98307.47;2088550;28;20053;-51
2023/07/22 00:37:01;;;;;;;2.33;1.90;;;;;;;30.66;47.06;98305.28;2088575;28;20499;-50
2023/07/22 00:38:03;;;;;;;2.75;2.08;;;;;;;30.66;47.48;98300.59;2087857;28;20457;-53
2023/07/22 00:39:05;;;;;;;3.20;1.67;;;;;;;30.65;47.34;98304.47;2087671;28;20071;-51
2023/07/22 00:40:11;;;;;;;1.90;1.67;;;;;;;30.67;47.36;98302.25;2087422;28;20048;-50
2023/07/22 00:41:13;;;;;;;2.80;1.83;;;;;;;30.65;47.45;98300.91;2086991;28;20041;-50
2023/07/22 00:42:14;;;;;;;2.75;2.15;;;;;;;30.66;47.47;98302.53;2088558;28;20128;-49
2023/07/22 00:43:16;;;;;;;2.17;1.98;;;;;;;30.65;47.31;98303.66;2091972;28;20051;-52
2023/07/22 00:44:17;;;;;;;2.92;1.80;;;;;;;30.62;47.36;98290.53;2089446;28;20044;-52
2023/07/22 00:45:19;;;;;;;2.63;1.67;;;;;;;30.65;47.05;98304.47;2087803;28;20045;-51
2023/07/22 00:46:19;;;;;;;2.10;1.90;;;;;;;30.67;47.54;98301.41;2086905;28;20400;-51
2023/07/22 00:47:22;;;;;;;3.03;2.22;;;;;;;30.63;47.40;98298.47;2088418;28;20473;-49
2023/07/22 00:48:23;;;;;;;2.33;2.05;;;;;;;30.66;47.07;98299.78;2086592;28;20048;-52
2023/07/22 00:49:25;;;;;;;3.88;1.65;;;;;;;30.65;47.23;98299.00;2085546;28;20458;-52
2023/07/22 00:50:27;;;;;;;3.60;2.13;;;;;;;30.63;47.34;98300.38;2088006;28;20066;-50
2023/07/22 00:51:29;;;;;;;2.78;1.92;;;;;;;30.63;47.36;98292.16;2087936;28;20263;-51
2023/07/22 00:52:31;;;;;;;2.10;1.75;;;;;;;30.65;47.29;98306.41;2087398;28;20053;-53
2023/07/22 00:53:32;;;;;;;2.33;2.13;;;;;;;30.64;47.28;98302.00;2087533;28;20069;-53
2023/07/22 00:54:34;;;;;;;4.78;2.60;;;;;;;30.64;47.59;98296.53;2088697;28;20052;-53
2023/07/22 00:55:39;;;;;;;2.42;1.88;;;;;;;30.62;47.18;98293.25;2086049;28;20221;-52
2023/07/22 00:56:41;;;;;;;2.60;1.65;;;;;;;30.63;47.30;98301.19;2086069;28;20041;-50
2023/07/22 00:57:42;;;;;;;2.75;1.92;;;;;;;30.64;47.42;98302.00;2087021;28;20098;-50
2023/07/22 00:58:43;;;;;;;3.40;1.88;;;;;;;30.61;47.27;98299.84;2084009;28;20079;-52
2023/07/22 00:59:46;;;;;;;3.90;2.05;;;;;;;30.64;47.25;98293.78;2090459;28;20516;-49
2023/07/22 01:00:47;;;;;;;1.77;1.67;;;;;;;30.62;47.47;98296.84;2086814;28;20740;-54
2023/07/22 01:01:49;;;;;;;1.92;1.67;;;;;;;30.64;47.39;98296.53;2088100;28;20049;-51
2023/07/22 01:02:50;;;;;;;2.05;1.67;;;;;;;30.63;47.13;98300.38;2087796;28;20491;-51
2023/07/22 01:03:52;;;;;;;3.05;2.45;;;;;;;30.64;47.26;98307.47;2084498;28;20063;-50
2023/07/22 01:04:52;;;;;;;3.63;2.35;;;;;;;30.65;47.12;98309.13;2087924;28;20146;-50
2023/07/22 01:05:54;;;;;;;3.45;1.70;;;;;;;30.63;47.48;98308.59;2088490;28;20057;-51
2023/07/22 01:06:58;;;;;;;3.90;2.20;;;;;;;30.63;47.28;98301.19;2087403;28;20124;-51
2023/07/22 01:07:59;;;;;;;2.05;1.90;;;;;;;30.62;47.36;98309.69;2087276;28;20056;-52
2023/07/22 01:09:01;;;;;;;2.72;1.50;;;;;;;30.61;47.22;98308.06;2088329;28;20055;-50
2023/07/22 01:10:03;;;;;;;2.28;1.55;;;;;;;30.64;47.27;98310.22;2086975;28;20117;-51
2023/07/22 01:11:05;;;;;;;2.35;1.88;;;;;;;30.64;47.47;98318.44;2085331;28;20134;-52
2023/07/22 01:12:08;;;;;;;2.63;1.85;;;;;;;30.65;47.42;98314.59;2087015;28;20052;-50
2023/07/22 01:13:10;;;;;;;2.25;1.80;;;;;;;30.64;47.59;98318.44;2088919;28;20093;-51
2023/07/22 01:14:11;;;;;;;3.47;2.30;;;;;;;30.62;47.43;98320.63;2088224;28;20086;-50
2023/07/22 01:15:12;;;;;;;4.30;2.40;;;;;;;30.62;47.69;98324.22;2089348;28;20102;-51
2023/07/22 01:16:13;;;;;;;2.55;1.70;;;;;;;30.63;47.19;98320.34;2087431;28;20045;-52
2023/07/22 01:17:15;;;;;;;2.00;1.88;;;;;;;30.63;47.69;98322.28;2087195;28;20056;-51
2023/07/22 01:18:16;;;;;;;2.35;2.10;;;;;;;30.64;47.17;98323.91;2087309;28;20049;-52
2023/07/22 01:19:19;;;;;;;2.08;1.85;;;;;;;30.65;47.19;98317.34;2088292;28;20503;-50
2023/07/22 01:20:21;;;;;;;2.15;1.92;;;;;;;30.63;47.40;98314.06;2085884;28;20048;-53
2023/07/22 01:21:24;;;;;;;2.63;2.03;;;;;;;30.62;47.43;98323.38;2089000;28;20051;-52
2023/07/22 01:22:27;;;;;;;3.33;1.45;;;;;;;30.63;47.24;98331.31;2084910;28;20040;-50
2023/07/22 01:23:31;;;;;;;2.60;1.80;;;;;;;30.66;47.07;98332.66;2085912;28;20474;-50
2023/07/22 01:24:32;;;;;;;2.33;1.77;;;;;;;30.63;47.54;98322.28;2087860;28;20520;-51
2023/07/22 01:25:34;;;;;;;2.25;1.92;;;;;;;30.62;47.47;98326.94;2087106;28;20517;-50
2023/07/22 01:26:34;;;;;;;2.65;2.30;;;;;;;30.64;47.37;98321.97;2088502;28;20151;-51
2023/07/22 01:27:37;;;;;;;2.03;1.77;;;;;;;30.63;47.24;98328.56;2085383;28;20060;-52
2023/07/22 01:28:37;;;;;;;2.35;1.92;;;;;;;30.63;47.22;98327.75;2087857;28;20536;-53
2023/07/22 01:29:39;;;;;;;3.67;1.90;;;;;;;30.61;47.59;98330.78;2087389;28;20067;-52
2023/07/22 01:30:40;;;;;;;2.03;1.60;;;;;;;30.63;47.35;98325.03;2089006;28;20068;-51
2023/07/22 01:31:42;;;;;;;2.58;2.15;;;;;;;30.64;47.61;98332.94;2089185;28;20041;-50
2023/07/22 01:32:43;;;;;;;4.60;2.25;;;;;;;30.63;47.26;98336.78;2085077;28;20048;-53
2023/07/22 01:33:45;;;;;;;2.67;2.20;;;;;;;30.64;47.17;98343.06;2087158;28;20128;-53
2023/07/22 01:34:46;;;;;;;1.98;1.45;;;;;;;30.63;47.48;98333.22;2086383;28;20554;-50
2023/07/22 01:35:47;;;;;;;3.35;2.08;;;;;;;30.61;47.27;98327.22;2086339;28;20044;-53
2023/07/22 01:36:49;;;;;;;2.28;1.90;;;;;;;30.62;47.20;98331.56;2086910;28;20106;-50
2023/07/22 01:37:51;;;;;;;2.17;1.70;;;;;;;30.62;47.20;98328.84;2086069;28;20576;-51
2023/07/22 01:38:54;;;;;;;2.40;1.88;;;;;;;30.60;47.52;98334.63;2086545;28;20401;-51
2023/07/22 01:39:57;;;;;;;2.67;2.22;;;;;;;30.61;47.65;98330.78;2085514;28;20060;-51
2023/07/22 01:40:57;;;;;;;3.15;1.67;;;;;;;30.59;47.75;98326.69;2087248;28;20146;-49
2023/07/22 01:41:59;;;;;;;2.70;2.35;;;;;;;30.60;47.45;98328.34;2088615;28;20071;-49
2023/07/22 01:43:00;;;;;;;2.15;1.70;;;;;;;30.60;47.57;98328.34;2088784;28;20044;-50
2023/07/22 01:44:02;;;;;;;2.03;1.75;;;;;;;30.62;47.60;98331.56;2087507;28;20139;-50
2023/07/22 01:45:06;;;;;;;3.33;2.10;;;;;;;30.60;47.70;98334.63;2087821;28;20099;-50
2023/07/22 01:46:07;;;;;;;2.20;1.60;;;;;;;30.62;47.65;98334.31;2086309;28;20252;-51
2023/07/22 01:47:08;;;;;;;2.45;2.05;;;;;;;30.60;47.29;98340.09;2085933;28;20113;-50
2023/07/22 01:48:10;;;;;;;3.50;2.00;;;;;;;30.61;47.38;98340.91;2084849;28;20489;-55
2023/07/22 01:49:12;;;;;;;2.15;1.60;;;;;;;30.60;47.21;98340.09;2084384;28;20063;-51
2023/07/22 01:50:14;;;;;;;2.90;1.48;;;;;;;30.61;47.71;98329.97;2086014;28;20048;-53
2023/07/22 01:51:14;;;;;;;2.17;1.98;;;;;;;30.60;47.17;98337.38;2085271;28;20058;-52
2023/07/22 01:52:16;;;;;;;2.22;1.70;;;;;;;30.60;47.59;98333.81;2086475;28;20670;-51
2023/07/22 01:53:17;;;;;;;2.15;1.10;;;;;;;30.60;47.57;98336.56;2088113;28;20076;-52
2023/07/22 01:54:20;;;;;;;3.10;1.73;;;;;;;30.59;47.23;98337.63;2086898;28;20592;-52
2023/07/22 01:55:21;;;;;;;5.95;2.90;;;;;;;30.58;47.72;98346.97;2084417;28;20048;-53
2023/07/22 01:56:23;;;;;;;2.53;1.70;;;;;;;30.60;47.76;98336.56;2084574;28;20507;-52
2023/07/22 01:57:24;;;;;;;2.33;1.88;;;;;;;30.58;47.22;98338.75;2087934;28;20459;-52
2023/07/22 01:58:26;;;;;;;3.45;1.67;;;;;;;30.56;47.76;98333.56;2086225;28;20106;-51
2023/07/22 01:59:27;;;;;;;2.70;1.95;;;;;;;30.58;47.58;98333.28;2088686;28;20076;-51
2023/07/22 02:00:28;;;;;;;2.65;2.00;;;;;;;30.56;47.39;98327.28;2086196;28;20056;-50
2023/07/22 02:01:30;;;;;;;2.83;2.05;;;;;;;30.58;47.38;98333.28;2087109;28;20040;-51
2023/07/22 02:02:30;;;;;;;2.42;1.98;;;;;;;30.59;47.15;98335.75;2086256;28;20424;-50
2023/07/22 02:03:32;;;;;;;2.60;1.92;;;;;;;30.58;47.77;98331.34;2089477;28;20144;-49
2023/07/22 02:04:33;;;;;;;3.55;1.98;;;;;;;30.61;47.29;98340.91;2087570;28;20049;-50
2023/07/22 02:05:35;;;;;;;2.90;1.80;;;;;;;30.58;47.22;98330.53;2089643;28;20612;-49
2023/07/22 02:06:36;;;;;;;2.25;1.92;;;;;;;30.58;47.47;98341.50;2084905;28;20044;-51
2023/07/22 02:07:37;;;;;;;1.48;1.38;;;;;;;30.56;47.45;98338.22;2084939;28;20570;-51
2023/07/22 02:08:39;;;;;;;2.25;1.90;;;;;;;30.58;47.52;98336.00;2086968;28;20101;-52
2023/07/22 02:09:41;;;;;;;3.28;1.90;;;;;;;30.55;47.52;98345.63;2088902;28;20535;-49
2023/07/22 02:10:43;;;;;;;1.92;1.83;;;;;;;30.57;47.32;98342.59;2088266;28;20284;-50
2023/07/22 02:11:44;;;;;;;3.45;2.13;;;;;;;30.57;47.72;98345.34;2089613;28;20072;-51
2023/07/22 02:12:45;;;;;;;3.33;2.10;;;;;;;30.55;47.37;98337.41;2086699;28;20055;-51
2023/07/22 02:13:46;;;;;;;2.90;1.52;;;;;;;30.59;47.59;98348.59;2085440;28;20711;-51
2023/07/22 02:14:47;;;;;;;3.38;1.83;;;;;;;30.58;47.89;98341.50;2088012;28;20139;-51
2023/07/22 02:15:49;;;;;;;3.70;1.90;;;;;;;30.58;47.36;98350.50;2087641;28;20055;-50
2023/07/22 02:16:50;;;;;;;2.63;2.10;;;;;;;30.58;47.46;98346.97;2088365;28;20083;-53
2023/07/22 02:17:52;;;;;;;2.38;1.98;;;;;;;30.56;47.43;98344.50;2087276;28;20518;-54
2023/07/22 02:18:52;;;;;;;3.30;1.75;;;;;;;30.56;47.42;98347.25;2086968;28;20084;-53
2023/07/22 02:19:54;;;;;;;1.77;1.50;;;;;;;30.58;47.58;98344.22;2086415;28;20483;-53
2023/07/22 02:20:56;;;;;;;3.75;2.13;;;;;;;30.56;47.59;98349.16;2086465;28;20064;-51
2023/07/22 02:21:57;;;;;;;1.85;1.65;;;;;;;30.55;47.69;98344.81;2086862;28;20131;-53
2023/07/22 02:22:58;;;;;;;2.17;1.58;;;;;;;30.56;47.39;98347.25;2087690;28;20080;-53
2023/07/22 02:24:00;;;;;;;1.95;1.67;;;;;;;30.55;47.73;98347.53;2086518;28;20053;-52
2023/07/22 02:25:03;;;;;;;1.65;1.40;;;;;;;30.57;47.58;98350.81;2085693;28;20072;-50
2023/07/22 02:26:05;;;;;;;2.17;1.85;;;;;;;30.55;47.59;98350.28;2087613;28;20105;-52
2023/07/22 02:27:08;;;;;;;2.20;1.48;;;;;;;30.56;47.53;98349.97;2086767;28;20049;-52
2023/07/22 02:28:09;;;;;;;6.28;2.67;;;;;;;30.56;47.29;98347.25;2087985;28;20208;-53
2023/07/22 02:29:12;;;;;;;2.78;1.90;;;;;;;30.55;47.60;98351.09;2086353;28;20099;-50
2023/07/22 02:30:13;;;;;;;3.20;2.00;;;;;;;30.53;47.60;98347.00;2085225;28;22015;-49
2023/07/22 02:31:15;;;;;;;2.75;1.67;;;;;;;30.54;47.68;98359.63;2086805;28;20044;-51
2023/07/22 02:32:15;;;;;;;3.42;2.20;;;;;;;30.54;47.62;98351.41;2087017;28;20072;-54
2023/07/22 02:33:17;;;;;;;3.38;2.20;;;;;;;30.55;47.48;98353.84;2083306;28;20048;-52
2023/07/22 02:34:18;;;;;;;4.32;1.92;;;;;;;30.55;47.82;98362.03;2075171;28;20053;-50
2023/07/22 02:35:20;;;;;;;3.30;1.90;;;;;;;30.56;47.71;98363.66;2079870;28;20396;-51
2023/07/22 02:36:21;;;;;;;2.90;2.08;;;;;;;30.56;47.60;98360.94;2084502;28;20498;-50
2023/07/22 02:37:22;;;;;;;2.53;1.92;;;;;;;30.53;47.41;98361.50;2086516;28;20052;-54
2023/07/22 02:38:23;;;;;;;3.00;1.98;;;;;;;30.53;47.81;98356.03;2085744;28;20063;-53
2023/07/22 02:39:25;;;;;;;2.40;1.90;;;;;;;30.54;47.53;98356.88;2086097;28;20510;-51
2023/07/22 02:40:27;;;;;;;2.13;1.77;;;;;;;30.55;47.77;98359.31;2086559;28;20044;-53
2023/07/22 02:41:29;;;;;;;2.72;1.67;;;;;;;30.55;47.66;98361.22;2086413;28;20064;-51
2023/07/22 02:42:30;;;;;;;3.15;1.92;;;;;;;30.53;47.34;98363.44;2080677;28;20072;-52
2023/07/22 02:43:31;;;;;;;2.97;1.73;;;;;;;30.55;47.35;98366.72;2081815;28;20048;-53
2023/07/22 02:44:32;;;;;;;2.90;2.00;;;;;;;30.52;47.84;98367.28;2086916;28;20167;-52
2023/07/22 02:45:33;;;;;;;2.30;1.65;;;;;;;30.52;47.46;98362.63;2087350;28;20394;-50
2023/07/22 02:46:35;;;;;;;3.08;2.08;;;;;;;30.53;47.85;98366.97;2087995;28;20404;-51
2023/07/22 02:47:36;;;;;;;4.32;1.90;;;;;;;30.53;47.41;98360.69;2088723;28;20328;-51
2023/07/22 02:48:39;;;;;;;3.30;1.80;;;;;;;30.54;47.74;98362.34;2077635;28;20053;-52
2023/07/22 02:49:39;;;;;;;2.55;2.03;;;;;;;30.53;47.70;98358.78;2079505;28;20052;-49
2023/07/22 02:50:41;;;;;;;1.90;1.75;;;;;;;30.51;47.54;98358.28;2076161;28;20036;-53
2023/07/22 02:51:42;;;;;;;2.67;1.98;;;;;;;30.50;47.87;98362.91;2080298;28;20099;-52
2023/07/22 02:52:44;;;;;;;2.45;1.77;;;;;;;30.50;47.69;98362.09;2077434;28;20515;-51
2023/07/22 02:53:46;;;;;;;1.60;1.50;;;;;;;30.52;47.81;98368.09;2081007;28;20075;-51
2023/07/22 02:55:07;;;;;;;3.13;1.98;;;;;;;30.50;47.64;98367.56;2077443;28;20095;-52
2023/07/22 02:56:11;;;;;;;;;;;;;;;30.40;48.10;98363.00;2078929;28;20503;-51
2023/07/22 02:57:12;;;;;;;3.03;1.60;;;;;;;30.42;47.81;98371.75;2078436;28;20334;-52
2023/07/22 02:58:13;;;;;;;1.75;1.60;;;;;;;30.44;47.57;98364.06;2079158;28;20132;-50
2023/07/22 02:59:15;;;;;;;2.67;1.92;;;;;;;30.47;47.93;98373.63;2077278;28;20053;-53
2023/07/22 03:00:23;;;;;;;2.15;1.35;;;;;;;30.46;47.72;98364.59;2077313;28;20069;-49
2023/07/22 03:01:25;;;;;;;2.13;1.85;;;;;;;30.46;47.42;98372.81;2082981;28;20043;-53
2023/07/22 03:02:26;;;;;;;4.03;1.67;;;;;;;30.49;47.43;98374.16;2080667;28;20050;-50
2023/07/22 03:03:28;;;;;;;2.22;1.90;;;;;;;30.49;47.72;98377.69;2079898;28;20397;-52
2023/07/22 03:04:29;;;;;;;1.58;1.48;;;;;;;30.48;47.63;98372.53;2080571;28;20106;-51
2023/07/22 03:05:33;;;;;;;1.67;1.52;;;;;;;30.49;47.78;98371.41;2077241;28;21185;-50
2023/07/22 03:06:34;;;;;;;2.05;1.90;;;;;;;30.48;47.73;98369.78;2078912;28;20041;-52
2023/07/22 03:07:35;;;;;;;2.97;1.95;;;;;;;30.49;47.62;98371.41;2081152;28;20049;-52
2023/07/22 03:08:37;;;;;;;3.05;2.10;;;;;;;30.49;47.61;98376.88;2087012;28;20530;-49
2023/07/22 03:09:38;;;;;;;2.47;1.77;;;;;;;30.47;47.45;98368.94;2084992;28;20058;-53
2023/07/22 03:10:39;;;;;;;1.95;1.75;;;;;;;30.46;47.43;98372.81;2088501;28;20126;-52
2023/07/22 03:11:42;;;;;;;2.25;1.90;;;;;;;30.49;47.38;98382.34;2085625;28;20472;-51
2023/07/22 03:12:43;;;;;;;3.17;2.13;;;;;;;30.49;47.30;98379.63;2084903;28;20594;-51
2023/07/22 03:13:44;;;;;;;3.83;1.85;;;;;;;30.49;47.52;98379.63;2078575;28;20049;-50
2023/07/22 03:14:45;;;;;;;3.55;2.15;;;;;;;30.48;47.62;98384.28;2085394;28;20440;-49
2023/07/22 03:15:47;;;;;;;2.45;1.45;;;;;;;30.48;47.54;98378.00;2085855;28;20179;-50
2023/07/22 03:16:48;;;;;;;2.40;1.50;;;;;;;30.49;47.59;98382.34;2086135;28;20087;-50
2023/07/22 03:17:50;;;;;;;2.67;1.98;;;;;;;30.49;47.49;98387.84;2084180;28;20060;-53
2023/07/22 03:18:51;;;;;;;3.67;1.70;;;;;;;30.50;47.76;98384.78;2087136;28;20053;-50
2023/07/22 03:19:53;;;;;;;2.58;2.00;;;;;;;30.49;47.63;98391.38;2085418;28;20189;-52
2023/07/22 03:20:54;;;;;;;4.22;1.85;;;;;;;30.46;47.46;98385.69;2087436;28;20048;-53
2023/07/22 03:21:56;;;;;;;1.80;1.42;;;;;;;30.47;47.45;98379.09;2087832;28;20475;-51
2023/07/22 03:22:56;;;;;;;2.42;1.65;;;;;;;30.48;47.50;98386.22;2087262;28;20140;-52
2023/07/22 03:23:58;;;;;;;1.98;1.65;;;;;;;30.45;47.59;98390.34;2088570;28;20048;-50
2023/07/22 03:24:59;;;;;;;2.78;2.20;;;;;;;30.45;47.49;98393.06;2087037;28;20102;-50
2023/07/22 03:26:01;;;;;;;2.13;1.83;;;;;;;30.45;47.63;98387.59;2084227;28;20130;-52
2023/07/22 03:27:04;;;;;;;2.10;1.90;;;;;;;30.47;47.63;98393.59;2077594;28;20143;-53
2023/07/22 03:28:07;;;;;;;2.17;1.98;;;;;;;30.46;47.75;98393.88;2076331;28;20352;-50
2023/07/22 03:29:08;;;;;;;2.60;1.88;;;;;;;30.45;47.45;98392.22;2079193;28;20490;-53
2023/07/22 03:30:14;;;;;;;2.30;1.63;;;;;;;30.45;47.85;98393.06;2077206;28;20049;-52
2023/07/22 03:31:15;;;;;;;3.53;1.88;;;;;;;30.44;47.90;98393.34;2078309;28;20045;-50
2023/07/22 03:32:17;;;;;;;2.85;1.73;;;;;;;30.45;47.68;98395.81;2075911;28;20559;-52
2023/07/22 03:33:17;;;;;;;3.42;1.80;;;;;;;30.43;47.59;98392.53;2078050;28;20136;-52
2023/07/22 03:34:19;;;;;;;2.92;1.95;;;;;;;30.43;47.58;98392.53;2079754;28;20510;-52
2023/07/22 03:35:20;;;;;;;2.15;1.95;;;;;;;30.42;47.73;98388.19;2080151;28;20133;-53
2023/07/22 03:36:22;;;;;;;1.92;1.50;;;;;;;30.44;47.55;98390.63;2079782;28;20052;-49
2023/07/22 03:37:24;;;;;;;1.90;1.42;;;;;;;30.44;47.60;98385.13;2077987;28;20053;-50
2023/07/22 03:38:24;;;;;;;2.22;1.75;;;;;;;30.42;47.84;98385.44;2080713;28;20056;-48
2023/07/22 03:39:26;;;;;;;2.67;1.88;;;;;;;30.43;47.59;98391.72;2081426;28;20714;-49
2023/07/22 03:40:28;;;;;;;2.65;1.60;;;;;;;30.42;47.90;98388.19;2081716;28;20053;-49
2023/07/22 03:41:30;;;;;;;4.40;2.20;;;;;;;30.43;47.65;98384.34;2084056;28;20041;-51
2023/07/22 03:42:32;;;;;;;3.70;1.85;;;;;;;30.43;47.42;98389.00;2082704;28;20126;-50
2023/07/22 03:43:34;;;;;;;2.22;1.98;;;;;;;30.43;47.71;98394.47;2081795;28;20053;-49
2023/07/22 03:44:34;;;;;;;3.60;2.35;;;;;;;30.42;47.63;98393.66;2082734;28;20260;-48
2023/07/22 03:45:36;;;;;;;2.70;1.85;;;;;;;30.41;47.45;98394.75;2081904;28;20045;-48
2023/07/22 03:46:37;;;;;;;1.60;1.30;;;;;;;30.41;47.81;98394.75;2082385;28;20566;-47
2023/07/22 03:47:39;;;;;;;1.73;1.40;;;;;;;30.41;47.52;98405.69;2082145;28;20049;-49
2023/07/22 03:48:40;;;;;;;3.00;2.05;;;;;;;30.40;47.63;98406.81;2081200;28;20079;-48
2023/07/22 03:49:42;;;;;;;2.38;1.52;;;;;;;30.41;47.76;98407.59;2082696;28;20037;-48
2023/07/22 03:50:43;;;;;;;1.88;1.60;;;;;;;30.39;47.80;98415.28;2079965;28;20198;-50
2023/07/22 03:51:45;;;;;;;2.70;2.13;;;;;;;30.38;47.42;98414.47;2081637;28;20045;-49
2023/07/22 03:52:45;;;;;;;2.50;1.83;;;;;;;30.40;47.50;98412.28;2080880;28;20096;-48
2023/07/22 03:53:47;;;;;;;3.13;1.98;;;;;;;30.38;47.67;98402.72;2082429;28;20045;-50
2023/07/22 03:54:48;;;;;;;2.35;1.88;;;;;;;30.40;47.41;98404.06;2079571;28;20060;-49
2023/07/22 03:55:50;;;;;;;2.47;2.28;;;;;;;30.38;47.73;98398.06;2080435;28;20057;-50
2023/07/22 03:56:51;;;;;;;2.90;2.00;;;;;;;30.40;47.55;98406.00;2092139;28;20106;-50
2023/07/22 03:57:54;;;;;;;2.60;1.95;;;;;;;30.40;47.92;98406.00;2089076;28;20576;-48
2023/07/22 03:58:55;;;;;;;3.95;1.98;;;;;;;30.39;47.57;98410.63;2080010;28;20050;-48
2023/07/22 03:59:55;;;;;;;3.65;2.13;;;;;;;30.39;47.82;98416.09;2081609;28;20044;-47
2023/07/22 04:00:57;;;;;;;2.25;1.73;;;;;;;30.37;47.43;98410.13;2080689;28;20045;-51
2023/07/22 04:01:58;;;;;;;2.97;2.00;;;;;;;30.38;47.55;98409.00;2080027;28;20060;-49
2023/07/22 04:03:00;;;;;;;4.15;2.05;;;;;;;30.38;47.69;98411.72;2081857;28;20063;-52
2023/07/22 04:04:01;;;;;;;3.60;2.13;;;;;;;30.38;47.57;98419.94;2078908;28;20126;-50
2023/07/22 04:05:02;;;;;;;2.10;1.80;;;;;;;30.38;48.04;98419.13;2077562;28;20076;-49
2023/07/22 04:06:04;;;;;;;1.90;1.50;;;;;;;30.38;47.84;98413.66;2085422;28;20538;-49
2023/07/22 04:07:07;;;;;;;2.75;1.73;;;;;;;30.37;47.69;98412.00;2089530;28;20045;-49
2023/07/22 04:08:09;;;;;;;4.05;2.17;;;;;;;30.36;47.65;98413.94;2089804;28;20131;-50
2023/07/22 04:09:10;;;;;;;2.63;1.70;;;;;;;30.37;47.95;98415.59;2089744;28;20132;-50
2023/07/22 04:10:12;;;;;;;2.55;1.75;;;;;;;30.37;47.84;98417.47;2088009;28;20051;-52
2023/07/22 04:11:14;;;;;;;2.33;1.38;;;;;;;30.37;47.97;98418.31;2088323;28;20238;-51
2023/07/22 04:12:14;;;;;;;3.50;1.65;;;;;;;30.37;47.70;98417.47;2088406;28;20402;-50
2023/07/22 04:13:18;;;;;;;1.55;1.40;;;;;;;30.39;47.42;98415.28;2087491;28;20044;-49
2023/07/22 04:14:18;;;;;;;3.50;1.40;;;;;;;30.37;47.65;98423.78;2089646;28;20064;-48
2023/07/22 04:15:20;;;;;;;2.10;1.90;;;;;;;30.37;47.53;98414.75;2088810;28;20047;-49
2023/07/22 04:16:21;;;;;;;2.45;2.00;;;;;;;30.36;47.84;98422.13;2091394;28;20408;-50
2023/07/22 04:17:23;;;;;;;4.45;1.70;;;;;;;30.35;47.98;98420.53;2089941;28;20049;-49
2023/07/22 04:18:24;;;;;;;1.83;1.60;;;;;;;30.35;47.67;98420.53;2092332;28;20052;-48
2023/07/22 04:19:25;;;;;;;2.60;2.25;;;;;;;30.36;47.77;98426.81;2089797;28;20114;-48
2023/07/22 04:20:26;;;;;;;3.42;2.05;;;;;;;30.35;47.54;98427.91;2091193;28;20045;-47
2023/07/22 04:21:27;;;;;;;2.35;1.55;;;;;;;30.35;47.72;98426.00;2092186;28;20048;-48
2023/07/22 04:22:29;;;;;;;1.45;1.35;;;;;;;30.35;47.61;98436.94;2089944;28;20075;-51
2023/07/22 04:23:32;;;;;;;2.13;1.38;;;;;;;30.34;47.83;98424.38;2089785;28;20131;-49
2023/07/22 04:24:33;;;;;;;3.05;1.98;;;;;;;30.34;47.80;98424.38;2088467;28;20148;-50
2023/07/22 04:25:40;;;;;;;2.90;1.48;;;;;;;30.33;47.98;98428.19;2090319;28;20858;-48
2023/07/22 04:26:42;;;;;;;2.35;1.75;;;;;;;30.33;47.73;98425.44;2092216;28;20044;-48
2023/07/22 04:27:44;;;;;;;4.45;2.28;;;;;;;30.33;47.89;98424.63;2088635;28;20049;-48
2023/07/22 04:28:46;;;;;;;2.20;1.88;;;;;;;30.36;47.51;98427.63;2091616;28;20064;-48
2023/07/22 04:29:48;;;;;;;1.98;1.63;;;;;;;30.34;47.76;98424.38;2090379;28;20102;-48
2023/07/22 04:30:55;;;;;;;1.92;1.55;;;;;;;30.33;47.48;98425.44;2090040;28;20612;-50
2023/07/22 04:31:59;;;;;;;3.00;1.98;;;;;;;30.35;47.77;98426.00;2089124;28;20052;-49
2023/07/22 04:33:00;;;;;;;3.13;1.75;;;;;;;30.34;47.70;98435.31;2088452;28;20460;-49
2023/07/22 04:34:02;;;;;;;2.83;1.90;;;;;;;30.35;47.47;98436.13;2091989;28;20169;-48
2023/07/22 04:35:03;;;;;;;3.20;1.88;;;;;;;30.34;47.90;98427.09;2092053;28;20057;-48
2023/07/22 04:36:06;;;;;;;2.97;1.88;;;;;;;30.34;47.92;98437.22;2091758;28;20060;-49
2023/07/22 04:37:07;;;;;;;3.28;2.20;;;;;;;30.34;47.40;98440.78;2090578;28;20053;-48
2023/07/22 04:38:09;;;;;;;2.55;1.75;;;;;;;30.33;47.54;98435.59;2081213;28;20052;-49
2023/07/22 04:39:10;;;;;;;2.13;1.88;;;;;;;30.33;47.45;98435.59;2088982;28;20239;-48
2023/07/22 04:40:14;;;;;;;3.67;2.30;;;;;;;30.35;47.85;98438.84;2091368;28;20044;-49
2023/07/22 04:41:15;;;;;;;2.92;2.03;;;;;;;30.34;47.45;98440.78;2089197;28;20053;-49
2023/07/22 04:42:17;;;;;;;2.95;1.67;;;;;;;30.32;47.61;98440.25;2088496;28;20565;-48
2023/07/22 04:43:18;;;;;;;4.47;1.83;;;;;;;30.31;47.64;98438.59;2090549;28;20052;-49
2023/07/22 04:44:21;;;;;;;2.00;1.75;;;;;;;30.33;47.40;98446.53;2091389;28;20577;-49
2023/07/22 04:45:23;;;;;;;2.42;1.75;;;;;;;30.33;47.30;98444.59;2089293;28;20055;-50
2023/07/22 04:46:25;;;;;;;2.28;1.67;;;;;;;30.34;47.60;98445.41;2086910;28;20060;-49
2023/07/22 04:47:27;;;;;;;2.40;1.80;;;;;;;30.32;47.71;98453.94;2089661;28;20056;-50
2023/07/22 04:48:29;;;;;;;2.20;2.00;;;;;;;30.32;47.58;98442.97;2091863;28;20056;-52
2023/07/22 04:49:30;;;;;;;1.98;1.58;;;;;;;30.32;47.66;98442.16;2088836;28;20048;-47
2023/07/22 04:50:31;;;;;;;1.33;1.20;;;;;;;30.33;47.68;98444.59;2089041;28;20502;-48